Terminal Aerodrome Forecast
Issued by NWS

Home | Current Version | Previous Version | Text Only | Print | Product List | Glossary On
Versions: 1 2 3 4 5 6 7 8 9 10 11 12 13 14 15 16 17
916
FTUS46 KPDT 252320
TAFBDN
TAF
KBDN 252320Z 2600/2624 23010KT P6SM SCT050 BKN070
     FM260600 19005KT P6SM FEW090 BKN150
     FM261600 19009KT 6SM -RA BR SCT020 BKN035
     FM262200 22011KT P6SM -SHRA SCT035 BKN050=

USA.gov is the U.S. government's official web portal to all federal, state and local government web resources and services.